createdAt,value
2022-11-29T00:00:09.342Z,15.40
2022-11-29T00:02:41.575Z,15.13
2022-11-29T00:05:10.502Z,15.15
2022-11-29T00:07:41.107Z,15.80
2022-11-29T00:10:11.022Z,14.70
2022-11-29T00:12:38.393Z,14.13
2022-11-29T00:15:07.656Z,15.00
2022-11-29T00:17:37.257Z,14.17
2022-11-29T00:20:07.170Z,13.93
2022-11-29T00:22:35.830Z,13.00
2022-11-29T00:25:07.521Z,13.70
2022-11-29T00:27:36.299Z,13.53
2022-11-29T00:30:05.996Z,13.73
2022-11-29T00:32:34.694Z,13.90
2022-11-29T00:35:09.307Z,12.57
2022-11-29T00:37:38.813Z,12.70
2022-11-29T00:40:10.399Z,12.10
2022-11-29T00:42:39.027Z,12.03
2022-11-29T00:45:08.571Z,11.67
2022-11-29T00:47:37.158Z,12.07
2022-11-29T00:50:06.656Z,11.80
2022-11-29T00:52:45.813Z,11.77
2022-11-29T00:55:16.389Z,11.83
2022-11-29T00:57:45.138Z,11.27
2022-11-29T01:00:14.925Z,12.20
2022-11-29T01:02:43.560Z,12.73
2022-11-29T01:05:12.300Z,11.30
2022-11-29T01:07:40.906Z,11.47
2022-11-29T01:10:10.339Z,11.60
2022-11-29T01:12:41.630Z,11.70
2022-11-29T01:15:11.955Z,11.47
2022-11-29T01:17:41.884Z,11.40
2022-11-29T01:20:13.844Z,11.50
2022-11-29T01:22:43.059Z,12.03
2022-11-29T01:25:17.037Z,11.75
2022-11-29T01:27:47.277Z,11.20
2022-11-29T01:30:16.622Z,12.37
2022-11-29T01:32:45.316Z,11.53
2022-11-29T01:35:13.929Z,11.33
2022-11-29T01:37:42.384Z,11.50
2022-11-29T01:40:11.870Z,11.23
2022-11-29T01:42:41.582Z,10.60
2022-11-29T01:45:23.309Z,11.13
2022-11-29T01:47:56.445Z,11.43
2022-11-29T01:50:25.048Z,10.60
2022-11-29T01:52:54.157Z,11.17
2022-11-29T01:55:23.134Z,11.20
2022-11-29T01:57:52.385Z,11.10
2022-11-29T02:00:23.005Z,11.40
2022-11-29T02:02:57.413Z,11.47
2022-11-29T02:05:28.279Z,11.27
2022-11-29T02:07:59.853Z,10.90
2022-11-29T02:10:38.058Z,10.67
2022-11-29T02:13:16.368Z,10.60
2022-11-29T02:15:53.905Z,10.27
2022-11-29T02:18:28.363Z,10.03
2022-11-29T02:21:25.140Z,9.80
2022-11-29T02:24:17.582Z,9.77
2022-11-29T02:27:02.777Z,10.40
2022-11-29T02:30:01.171Z,9.90
2022-11-29T03:14:14.690Z,10.30
2022-11-29T03:16:49.739Z,9.70
2022-11-29T03:22:19.483Z,9.80
2022-11-29T03:24:56.537Z,10.93
2022-11-29T03:27:37.575Z,10.60
2022-11-29T03:30:11.792Z,11.10
2022-11-29T03:32:49.900Z,11.03
2022-11-29T03:35:26.170Z,11.50
2022-11-29T03:38:04.461Z,10.63
2022-11-29T03:40:46.740Z,11.73
2022-11-29T03:43:19.803Z,10.80
2022-11-29T03:45:58.994Z,11.27
2022-11-29T03:48:34.711Z,11.30
2022-11-29T03:51:08.996Z,11.27
2022-11-29T03:53:49.535Z,10.83
2022-11-29T03:56:33.825Z,10.93
2022-11-29T03:59:25.486Z,10.70
2022-11-29T04:02:53.751Z,11.13
2022-11-29T04:06:05.581Z,11.53
2022-11-29T04:09:17.720Z,11.50
2022-11-29T04:12:18.740Z,11.37
2022-11-29T04:15:27.081Z,11.37
2022-11-29T04:18:25.825Z,11.43
2022-11-29T04:21:38.504Z,12.17
2022-11-29T04:24:50.249Z,11.93
2022-11-29T04:27:38.465Z,12.47
2022-11-29T04:30:18.999Z,12.00
2022-11-29T04:33:29.882Z,9.40
2022-11-29T04:36:32.490Z,12.83
2022-11-29T04:39:38.743Z,12.00
2022-11-29T04:42:35.609Z,12.83
2022-11-29T04:45:31.907Z,11.33
2022-11-29T04:48:12.202Z,11.43
2022-11-29T04:50:57.117Z,12.07
2022-11-29T04:53:34.600Z,12.20
2022-11-29T04:56:13.180Z,12.27
2022-11-29T04:58:53.801Z,11.67
2022-11-29T05:01:42.455Z,11.50
2022-11-29T05:04:22.842Z,11.70
2022-11-29T05:07:03.383Z,11.63
2022-11-29T05:09:56.944Z,11.23
2022-11-29T05:12:41.020Z,11.83
2022-11-29T05:15:43.236Z,11.57
2022-11-29T05:18:27.427Z,12.63
2022-11-29T05:21:07.311Z,12.57
2022-11-29T05:23:52.809Z,12.37
2022-11-29T05:26:31.432Z,12.70
2022-11-29T05:29:15.884Z,12.67
2022-11-29T05:31:59.810Z,11.57
2022-11-29T05:34:58.665Z,11.77
2022-11-29T05:37:36.499Z,11.97
2022-11-29T05:40:47.532Z,12.20
2022-11-29T05:43:50.002Z,12.73
2022-11-29T05:46:32.682Z,11.50
2022-11-29T05:49:17.814Z,13.63
2022-11-29T05:51:55.117Z,12.50
2022-11-29T05:54:32.672Z,12.17
2022-11-29T05:57:18.956Z,12.17
2022-11-29T05:59:51.411Z,12.10
2022-11-29T06:02:34.672Z,11.53
2022-11-29T06:05:15.001Z,11.77
2022-11-29T06:07:52.343Z,11.30
2022-11-29T06:10:27.276Z,12.40
2022-11-29T06:13:07.702Z,11.93
2022-11-29T08:43:06.767Z,21.80
2022-11-29T08:45:41.335Z,22.17
2022-11-29T08:48:10.196Z,21.83
2022-11-29T08:50:38.897Z,22.70
2022-11-29T08:53:27.824Z,21.77
2022-11-29T08:56:01.634Z,22.97
2022-11-29T08:58:40.612Z,23.40
2022-11-29T09:06:34.905Z,24.67
2022-11-29T09:09:05.820Z,24.53
2022-11-29T09:11:36.038Z,24.77
2022-11-29T09:14:08.103Z,25.40
2022-11-29T09:16:38.643Z,25.60
2022-11-29T09:19:08.419Z,25.63
2022-11-29T09:21:38.574Z,24.67
2022-11-29T09:24:10.369Z,26.00
2022-11-29T09:26:41.761Z,25.20
2022-11-29T09:29:26.139Z,25.77
2022-11-29T09:31:58.959Z,24.97
2022-11-29T09:34:27.690Z,24.80
2022-11-29T09:36:56.597Z,24.47
2022-11-29T09:39:26.827Z,25.17
2022-11-29T09:42:24.768Z,23.53
2022-11-29T09:45:03.574Z,23.93
2022-11-29T09:47:58.971Z,24.90
2022-11-29T09:50:51.131Z,24.87
2022-11-29T09:53:43.780Z,24.97
2022-11-29T09:56:23.748Z,24.30
2022-11-29T09:59:02.035Z,25.80
2022-11-29T10:01:34.702Z,25.83
2022-11-29T10:04:08.166Z,25.97
2022-11-29T10:06:41.217Z,26.57
2022-11-29T10:09:18.711Z,27.13
2022-11-29T10:12:01.068Z,26.37
2022-11-29T10:14:35.594Z,26.67
2022-11-29T10:17:15.205Z,29.17
2022-11-29T10:19:48.530Z,28.30
2022-11-29T10:22:23.110Z,26.63
2022-11-29T10:24:55.947Z,25.67
2022-11-29T10:27:29.787Z,26.07
2022-11-29T10:30:02.594Z,25.67
2022-11-29T10:32:33.337Z,24.40
2022-11-29T10:35:02.377Z,26.20
2022-11-29T10:37:33.047Z,25.37
2022-11-29T10:40:07.818Z,28.87
2022-11-29T10:42:53.349Z,28.83
2022-11-29T10:45:31.145Z,27.37
2022-11-29T10:48:04.548Z,27.30
2022-11-29T10:50:36.368Z,30.83
2022-11-29T10:53:08.160Z,30.57
2022-11-29T10:55:41.853Z,29.53
2022-11-29T10:58:15.947Z,29.53
2022-11-29T11:00:52.912Z,28.50
2022-11-29T11:03:39.406Z,31.80
2022-11-29T11:06:12.366Z,32.30
2022-11-29T11:08:44.584Z,30.90
2022-11-29T11:11:15.254Z,29.37
2022-11-29T11:13:57.994Z,30.80
2022-11-29T11:16:31.555Z,30.33
2022-11-29T11:19:26.264Z,31.93
2022-11-29T11:21:58.822Z,31.93
2022-11-29T11:24:30.046Z,30.50
2022-11-29T11:26:59.345Z,31.63
2022-11-29T11:29:36.570Z,30.83
2022-11-29T11:32:08.924Z,31.27
2022-11-29T11:34:39.003Z,30.83
2022-11-29T11:37:22.038Z,34.73
2022-11-29T11:39:52.870Z,32.50
2022-11-29T11:45:32.566Z,35.00
2022-11-29T11:48:13.278Z,35.67
2022-11-29T11:50:46.371Z,36.30
2022-11-29T11:53:22.249Z,37.77
2022-11-29T11:55:59.049Z,37.87
2022-11-29T11:58:30.271Z,38.00
2022-11-29T12:01:04.779Z,36.70
2022-11-29T12:03:53.123Z,37.17
2022-11-29T12:06:41.259Z,36.20
2022-11-29T12:09:19.579Z,35.07
2022-11-29T12:11:56.543Z,34.60
2022-11-29T12:14:34.308Z,35.00
2022-11-29T12:17:18.445Z,36.03
2022-11-29T12:20:00.767Z,35.70
2022-11-29T12:22:41.573Z,34.53
2022-11-29T12:25:19.293Z,33.77
2022-11-29T12:27:49.852Z,33.53
2022-11-29T12:30:19.375Z,36.00
2022-11-29T12:33:23.997Z,33.70
2022-11-29T12:36:10.544Z,36.83
2022-11-29T12:39:01.407Z,35.27
2022-11-29T12:44:14.431Z,34.57
2022-11-29T12:46:54.315Z,33.87
2022-11-29T12:49:33.340Z,34.27
2022-11-29T12:52:09.567Z,32.30
2022-11-29T12:54:51.432Z,33.37
2022-11-29T12:57:28.640Z,30.25
2022-11-29T13:00:12.455Z,30.67
2022-11-29T13:02:54.563Z,33.00
2022-11-29T13:05:34.539Z,29.73
2022-11-29T13:08:30.271Z,30.70
2022-11-29T13:11:07.555Z,31.23
2022-11-29T13:13:42.365Z,30.67
2022-11-29T13:16:32.758Z,31.37
2022-11-29T13:19:06.678Z,30.33
2022-11-29T13:21:43.151Z,29.87
2022-11-29T13:24:16.070Z,30.00
2022-11-29T13:26:46.098Z,29.10
2022-11-29T13:29:18.740Z,29.83
2022-11-29T13:31:48.614Z,28.47
2022-11-29T13:34:23.680Z,28.50
2022-11-29T13:37:06.256Z,30.00
2022-11-29T13:39:44.422Z,27.47
2022-11-29T13:42:22.596Z,27.87
2022-11-29T13:44:59.371Z,28.03
2022-11-29T13:47:28.223Z,26.77
2022-11-29T13:49:59.279Z,27.40
2022-11-29T13:52:42.757Z,25.27
2022-11-29T13:55:29.016Z,26.07
2022-11-29T13:58:16.697Z,25.90
2022-11-29T14:00:52.202Z,25.50
2022-11-29T14:03:32.563Z,25.17
2022-11-29T14:06:11.482Z,25.47
2022-11-29T14:09:17.381Z,22.27
2022-11-29T14:11:45.318Z,22.77
2022-11-29T14:14:26.730Z,23.23
2022-11-29T14:16:59.660Z,23.27
2022-11-29T14:19:33.841Z,22.30
2022-11-29T14:22:21.190Z,22.90
2022-11-29T14:28:31.371Z,23.23
2022-11-29T14:31:02.100Z,22.93
2022-11-29T14:33:40.381Z,25.60
2022-11-29T14:36:31.171Z,24.60
2022-11-29T14:39:27.499Z,22.70
2022-11-29T14:42:06.635Z,23.43
2022-11-29T14:54:56.017Z,25.47
2022-11-29T14:58:06.137Z,26.93
2022-11-29T15:01:08.120Z,25.83
2022-11-29T15:03:46.766Z,24.60
2022-11-29T15:08:56.069Z,24.20
2022-11-29T15:11:35.404Z,25.53
2022-11-29T15:14:07.823Z,24.63
2022-11-29T15:17:01.230Z,24.70
2022-11-29T15:19:56.830Z,25.17
2022-11-29T15:22:29.811Z,24.87
2022-11-29T15:25:02.677Z,25.67
2022-11-29T15:27:32.751Z,24.47
2022-11-29T15:32:49.236Z,25.67
2022-11-29T15:35:20.060Z,25.70
2022-11-29T15:37:50.319Z,27.23
2022-11-29T15:40:21.003Z,25.57
2022-11-29T15:42:53.734Z,26.50
2022-11-29T15:47:55.527Z,28.80
2022-11-29T15:55:27.261Z,27.87
2022-11-29T16:05:31.209Z,29.07
2022-11-29T16:08:03.347Z,27.83
2022-11-29T16:10:37.868Z,27.27
2022-11-29T16:13:08.938Z,27.70
2022-11-29T16:15:40.162Z,27.43
2022-11-29T16:18:15.124Z,27.00
2022-11-29T16:20:45.609Z,29.27
2022-11-29T16:23:26.930Z,28.03
2022-11-29T16:26:00.974Z,27.67
2022-11-29T16:35:04.650Z,38.27
2022-11-29T16:57:23.119Z,31.60
2022-11-29T17:03:23.086Z,25.87
2022-11-29T17:09:19.750Z,24.10
2022-11-29T17:15:16.437Z,25.40
2022-11-29T17:17:56.298Z,27.37
2022-11-29T17:20:45.731Z,27.10
2022-11-29T17:23:48.480Z,28.20
2022-11-29T17:30:27.467Z,27.03
2022-11-29T17:33:13.199Z,27.03
2022-11-29T17:36:47.304Z,23.97
2022-11-29T17:39:03.367Z,24.97
2022-11-29T17:42:08.926Z,26.87
2022-11-29T17:45:10.323Z,25.90
2022-11-29T17:48:23.498Z,26.57
2022-11-29T17:51:52.120Z,25.43
2022-11-29T17:54:48.847Z,28.10
2022-11-29T17:58:22.944Z,27.03
2022-11-29T18:01:43.463Z,26.27
2022-11-29T18:11:46.453Z,26.27
2022-11-29T18:15:03.004Z,26.20
2022-11-29T18:18:10.694Z,23.53
2022-11-29T18:21:24.954Z,24.97
2022-11-29T18:24:46.523Z,24.67
2022-11-29T18:30:57.382Z,24.37
2022-11-29T18:51:21.349Z,24.73
2022-11-29T19:05:46.251Z,34.53
2022-11-29T19:08:52.596Z,28.03
2022-11-29T19:11:44.447Z,29.50
2022-11-29T19:18:04.302Z,42.53
2022-11-29T19:20:54.714Z,43.63
2022-11-29T19:24:44.624Z,46.23
2022-11-29T19:28:49.867Z,29.67
2022-11-29T19:36:04.206Z,26.13
2022-11-29T19:39:54.305Z,27.95
2022-11-29T19:50:50.490Z,27.03
2022-11-29T19:53:57.890Z,26.80
2022-11-29T20:01:03.547Z,25.97
2022-11-29T20:04:48.710Z,27.37
2022-11-29T20:08:21.126Z,29.97
2022-11-29T20:12:54.748Z,28.60
2022-11-29T20:17:16.898Z,28.87
2022-11-29T20:28:56.278Z,25.63
2022-11-29T20:32:00.759Z,25.30
2022-11-29T20:40:38.076Z,26.50
2022-11-29T20:45:09.456Z,25.97
2022-11-29T20:48:25.303Z,24.60
2022-11-29T21:00:12.930Z,24.23
2022-11-29T21:07:15.390Z,24.93
2022-11-29T21:10:44.809Z,22.97
2022-11-29T21:15:17.584Z,21.30
2022-11-29T21:18:59.888Z,22.03
2022-11-29T21:22:36.516Z,21.17
2022-11-29T21:25:43.881Z,20.97
2022-11-29T21:28:51.881Z,20.03
2022-11-29T21:33:11.063Z,17.83
2022-11-29T21:37:35.277Z,19.23
2022-11-29T21:44:05.987Z,18.33
2022-11-29T21:46:35.388Z,18.75
2022-11-29T21:49:03.718Z,18.93
2022-11-29T21:51:31.981Z,19.53
2022-11-29T21:54:00.271Z,19.87
2022-11-29T21:56:29.053Z,19.00
2022-11-29T21:58:58.860Z,18.87
2022-11-29T22:01:28.265Z,19.07
2022-11-29T22:03:56.949Z,19.00
2022-11-29T22:06:26.278Z,20.00
2022-11-29T22:08:54.862Z,21.23
2022-11-29T22:11:31.723Z,21.43
2022-11-29T22:14:15.372Z,29.53
2022-11-29T22:16:45.580Z,33.73
2022-11-29T22:19:15.428Z,39.87
2022-11-29T22:49:05.339Z,40.47
2022-11-29T22:51:35.576Z,45.67
2022-11-29T22:54:05.687Z,42.27
2022-11-29T22:56:36.060Z,41.33
2022-11-29T22:59:04.561Z,36.55
2022-11-29T23:06:34.143Z,34.20
2022-11-29T23:09:07.911Z,26.00
2022-11-29T23:11:36.114Z,29.03
2022-11-29T23:14:04.281Z,28.43
2022-11-29T23:16:32.868Z,27.47
2022-11-29T23:19:01.737Z,26.27
2022-11-29T23:21:35.027Z,23.93
2022-11-29T23:24:03.734Z,22.53
2022-11-29T23:26:36.430Z,22.40
2022-11-29T23:29:05.551Z,20.60
2022-11-29T23:31:34.682Z,20.90
2022-11-29T23:34:03.438Z,21.60
2022-11-29T23:36:33.049Z,19.67
2022-11-29T23:39:01.430Z,20.93
2022-11-29T23:41:29.709Z,20.13
2022-11-29T23:43:59.626Z,20.33
2022-11-29T23:46:27.886Z,20.37
2022-11-29T23:48:56.145Z,20.67
2022-11-29T23:51:24.287Z,20.40
2022-11-29T23:53:54.541Z,22.30
2022-11-29T23:56:23.059Z,21.00
2022-11-29T23:58:51.360Z,21.33
